createdAt,value
2017-01-23T00:00:12.770Z,18.78
2017-01-23T00:01:12.488Z,18.78
2017-01-23T00:02:12.418Z,18.78
2017-01-23T00:03:13.019Z,18.24
2017-01-23T00:04:12.674Z,18.18
2017-01-23T00:05:12.284Z,18.22
2017-01-23T00:06:12.984Z,18.23
2017-01-23T00:07:13.582Z,18.68
2017-01-23T00:08:12.715Z,18.73
2017-01-23T00:09:12.251Z,18.74
2017-01-23T00:10:12.348Z,18.22
2017-01-23T00:11:09.805Z,18.17
2017-01-23T00:12:12.552Z,18.15
2017-01-23T00:13:12.534Z,18.14
2017-01-23T00:14:13.335Z,18.13
2017-01-23T00:15:13.063Z,18.13
2017-01-23T00:16:12.962Z,18.13
2017-01-23T00:17:17.500Z,18.12
2017-01-23T00:18:14.097Z,18.12
2017-01-23T00:19:13.744Z,18.12
2017-01-23T00:20:12.428Z,18.16
2017-01-23T00:21:12.458Z,18.12
2017-01-23T00:22:11.106Z,18.12
2017-01-23T00:23:11.167Z,18.65
2017-01-23T00:24:13.318Z,18.71
2017-01-23T00:25:12.355Z,18.73
2017-01-23T00:26:13.120Z,18.21
2017-01-23T00:27:12.739Z,18.16
2017-01-23T00:28:09.926Z,18.14
2017-01-23T00:29:12.640Z,18.67
2017-01-23T00:30:12.336Z,18.70
2017-01-23T00:31:12.420Z,18.73
2017-01-23T00:32:13.956Z,18.74
2017-01-23T00:33:12.426Z,18.72
2017-01-23T00:34:12.836Z,18.72
2017-01-23T00:35:14.243Z,18.17
2017-01-23T00:36:10.936Z,18.12
2017-01-23T00:37:12.901Z,18.08
2017-01-23T00:38:11.817Z,18.05
2017-01-23T00:39:12.363Z,18.04
2017-01-23T00:40:12.430Z,18.02
2017-01-23T00:41:12.453Z,18.01
2017-01-23T00:42:10.995Z,18.00
2017-01-23T00:43:10.658Z,17.99
2017-01-23T00:44:12.347Z,18.53
2017-01-23T00:45:12.295Z,18.57
2017-01-23T00:46:13.786Z,18.60
2017-01-23T00:47:12.572Z,18.23
2017-01-23T00:48:13.546Z,18.06
2017-01-23T00:49:13.730Z,18.01
2017-01-23T00:50:11.846Z,17.99
2017-01-23T00:51:11.916Z,17.97
2017-01-23T00:52:12.528Z,17.96
2017-01-23T00:53:13.215Z,17.95
2017-01-23T00:54:14.068Z,17.95
2017-01-23T00:55:14.802Z,17.96
2017-01-23T00:56:12.406Z,17.95
2017-01-23T00:57:12.380Z,17.95
2017-01-23T00:58:13.365Z,17.95
2017-01-23T00:59:13.094Z,17.94
2017-01-23T01:00:10.813Z,17.93
2017-01-23T01:01:13.337Z,17.95
2017-01-23T01:02:15.401Z,17.94
2017-01-23T01:03:13.281Z,17.93
2017-01-23T01:04:15.487Z,17.93
2017-01-23T01:05:13.204Z,17.93
2017-01-23T01:06:12.833Z,18.00
2017-01-23T01:07:12.697Z,17.93
2017-01-23T01:08:14.421Z,17.92
2017-01-23T01:09:12.473Z,17.92
2017-01-23T01:10:14.663Z,17.92
2017-01-23T01:11:11.713Z,17.93
2017-01-23T01:12:14.284Z,17.93
2017-01-23T01:13:12.237Z,17.93
2017-01-23T01:14:12.426Z,17.92
2017-01-23T01:15:13.945Z,17.92
2017-01-23T01:16:12.303Z,17.97
2017-01-23T01:17:12.409Z,17.92
2017-01-23T01:18:12.862Z,17.92
2017-01-23T01:19:15.527Z,17.93
2017-01-23T01:20:14.112Z,17.91
2017-01-23T01:21:13.066Z,17.91
2017-01-23T01:22:12.514Z,17.91
2017-01-23T01:23:14.525Z,17.91
2017-01-23T01:24:13.687Z,17.91
2017-01-23T01:25:15.407Z,17.90
2017-01-23T01:26:12.707Z,17.91
2017-01-23T01:27:14.788Z,17.93
2017-01-23T01:28:12.662Z,17.91
2017-01-23T01:29:12.841Z,17.91
2017-01-23T01:30:13.661Z,17.90
2017-01-23T01:31:12.233Z,17.91
2017-01-23T01:32:12.262Z,17.90
2017-01-23T01:33:13.801Z,17.91
2017-01-23T01:34:13.322Z,17.90
2017-01-23T01:35:13.576Z,17.90
2017-01-23T01:36:13.048Z,17.91
2017-01-23T01:37:13.332Z,17.90
2017-01-23T01:38:10.995Z,17.90
2017-01-23T01:39:14.580Z,18.44
2017-01-23T01:40:13.558Z,18.50
2017-01-23T01:41:13.145Z,18.20
2017-01-23T01:42:14.467Z,17.99
2017-01-23T01:43:13.580Z,17.95
2017-01-23T01:44:12.240Z,17.92
2017-01-23T01:45:12.290Z,17.92
2017-01-23T01:46:14.134Z,17.90
2017-01-23T01:47:11.021Z,17.90
2017-01-23T01:48:14.163Z,18.43
2017-01-23T01:49:12.134Z,18.48
2017-01-23T01:50:12.144Z,17.97
2017-01-23T01:51:09.492Z,17.94
2017-01-23T01:52:10.807Z,17.91
2017-01-23T01:53:13.741Z,18.46
2017-01-23T01:54:12.283Z,18.51
2017-01-23T01:55:13.754Z,18.52
2017-01-23T01:56:12.846Z,18.52
2017-01-23T01:57:11.752Z,18.54
2017-01-23T01:58:12.314Z,18.54
2017-01-23T01:59:13.965Z,18.17
2017-01-23T02:00:12.634Z,18.01
2017-01-23T02:01:10.799Z,17.95
2017-01-23T02:02:14.333Z,17.93
2017-01-23T02:03:13.753Z,17.95
2017-01-23T02:04:13.498Z,18.45
2017-01-23T02:05:12.614Z,18.50
2017-01-23T02:06:12.214Z,18.17
2017-01-23T02:07:12.643Z,17.98
2017-01-23T02:08:12.544Z,17.94
2017-01-23T02:09:11.639Z,17.91
2017-01-23T02:10:13.210Z,17.91
2017-01-23T02:11:12.155Z,17.91
2017-01-23T02:12:13.016Z,17.92
2017-01-23T02:13:13.677Z,17.90
2017-01-23T02:14:12.781Z,17.91
2017-01-23T02:15:13.452Z,17.90
2017-01-23T02:16:12.444Z,17.90
2017-01-23T02:17:13.341Z,17.90
2017-01-23T02:18:14.042Z,17.90
2017-01-23T02:19:13.683Z,17.94
2017-01-23T02:20:12.237Z,17.89
2017-01-23T02:21:12.846Z,17.89
2017-01-23T02:22:09.983Z,17.89
2017-01-23T02:23:13.169Z,17.90
2017-01-23T02:24:13.167Z,17.92
2017-01-23T02:25:12.147Z,17.89
2017-01-23T02:26:12.221Z,17.89
2017-01-23T02:27:13.029Z,17.94
2017-01-23T02:28:12.630Z,17.92
2017-01-23T02:29:13.621Z,17.88
2017-01-23T02:30:13.413Z,17.89
2017-01-23T02:31:12.871Z,17.91
2017-01-23T02:32:12.478Z,17.88
2017-01-23T02:33:10.630Z,17.88
2017-01-23T02:34:11.703Z,17.89
2017-01-23T02:35:10.284Z,17.88
2017-01-23T02:36:13.279Z,17.88
2017-01-23T02:37:12.850Z,17.92
2017-01-23T02:38:12.461Z,17.91
2017-01-23T02:39:13.303Z,18.40
2017-01-23T02:40:13.362Z,18.48
2017-01-23T02:41:13.050Z,18.49
2017-01-23T02:42:12.069Z,18.51
2017-01-23T02:43:12.724Z,18.52
2017-01-23T02:44:09.603Z,18.52
2017-01-23T02:45:12.478Z,18.54
2017-01-23T02:46:12.990Z,18.53
2017-01-23T02:47:13.350Z,18.53
2017-01-23T02:48:12.480Z,18.53
2017-01-23T02:49:13.877Z,18.54
2017-01-23T02:50:12.332Z,18.19
2017-01-23T02:51:12.287Z,17.99
2017-01-23T02:52:12.609Z,18.01
2017-01-23T02:53:12.247Z,17.92
2017-01-23T02:54:13.051Z,17.90
2017-01-23T02:55:12.713Z,17.90
2017-01-23T02:56:12.257Z,17.89
2017-01-23T02:57:14.440Z,17.89
2017-01-23T02:58:14.051Z,17.89
2017-01-23T02:59:13.414Z,17.88
2017-01-23T03:00:13.772Z,17.89
2017-01-23T03:01:13.072Z,17.88
2017-01-23T03:02:13.176Z,17.88
2017-01-23T03:03:12.361Z,17.88
2017-01-23T03:04:13.179Z,17.88
2017-01-23T03:05:13.235Z,17.94
2017-01-23T03:06:13.640Z,17.88
2017-01-23T03:07:11.571Z,17.88
2017-01-23T03:08:11.613Z,17.88
2017-01-23T03:09:12.302Z,17.87
2017-01-23T03:10:13.476Z,17.90
2017-01-23T03:11:13.218Z,17.88
2017-01-23T03:12:13.125Z,17.88
2017-01-23T03:13:12.704Z,17.88
2017-01-23T03:14:12.122Z,17.90
2017-01-23T03:15:12.812Z,17.88
2017-01-23T03:16:12.480Z,17.95
2017-01-23T03:17:11.534Z,18.40
2017-01-23T03:18:12.464Z,18.46
2017-01-23T03:19:12.951Z,18.13
2017-01-23T03:20:12.592Z,18.00
2017-01-23T03:21:10.506Z,17.91
2017-01-23T03:22:13.382Z,17.90
2017-01-23T03:23:13.222Z,17.90
2017-01-23T03:24:12.700Z,17.89
2017-01-23T03:25:13.035Z,17.89
2017-01-23T03:26:14.735Z,17.88
2017-01-23T03:27:11.837Z,17.88
2017-01-23T03:28:13.093Z,17.88
2017-01-23T03:29:12.132Z,17.88
2017-01-23T03:30:12.231Z,17.87
2017-01-23T03:31:12.948Z,17.87
2017-01-23T03:32:11.876Z,17.88
2017-01-23T03:33:11.756Z,17.88
2017-01-23T03:34:12.474Z,17.87
2017-01-23T03:35:13.020Z,17.87
2017-01-23T03:36:13.129Z,17.87
2017-01-23T03:37:10.826Z,17.87
2017-01-23T03:38:12.095Z,17.87
2017-01-23T03:39:11.010Z,17.87
2017-01-23T03:40:11.029Z,17.86
2017-01-23T03:41:13.287Z,18.05
2017-01-23T03:42:12.961Z,17.92
2017-01-23T03:43:12.683Z,17.89
2017-01-23T03:44:11.819Z,17.88
2017-01-23T03:45:10.528Z,17.87
2017-01-23T03:46:12.364Z,18.41
2017-01-23T03:47:12.994Z,18.46
2017-01-23T03:48:11.063Z,18.50
2017-01-23T03:49:12.143Z,18.51
2017-01-23T03:50:12.953Z,18.05
2017-01-23T03:51:12.833Z,18.45
2017-01-23T03:52:12.534Z,18.00
2017-01-23T03:53:12.346Z,17.90
2017-01-23T03:54:13.045Z,17.90
2017-01-23T03:55:10.084Z,18.42
2017-01-23T03:56:12.711Z,18.46
2017-01-23T03:57:11.766Z,18.48
2017-01-23T03:58:12.812Z,18.51
2017-01-23T03:59:12.728Z,18.51
2017-01-23T04:00:09.829Z,18.51
2017-01-23T04:01:10.951Z,18.51
2017-01-23T04:02:12.108Z,18.52
2017-01-23T04:03:13.357Z,18.20
2017-01-23T04:04:12.984Z,18.53
2017-01-23T04:05:13.637Z,18.18
2017-01-23T04:06:12.280Z,18.00
2017-01-23T04:07:12.252Z,17.94
2017-01-23T04:08:12.121Z,17.92
2017-01-23T04:09:10.935Z,17.89
2017-01-23T04:10:14.718Z,17.89
2017-01-23T04:11:12.410Z,17.89
2017-01-23T04:12:12.934Z,17.88
2017-01-23T04:13:10.107Z,17.88
2017-01-23T04:14:12.983Z,17.88
2017-01-23T04:15:12.388Z,17.93
2017-01-23T04:16:14.156Z,17.88
2017-01-23T04:17:12.233Z,17.88
2017-01-23T04:18:13.983Z,17.88
2017-01-23T04:19:12.813Z,17.88
2017-01-23T04:20:13.568Z,17.87
2017-01-23T04:21:12.317Z,17.87
2017-01-23T04:22:15.218Z,17.87
2017-01-23T04:23:13.017Z,17.88
2017-01-23T04:24:12.629Z,17.87
2017-01-23T04:25:12.548Z,17.87
2017-01-23T04:26:14.192Z,17.86
2017-01-23T04:27:12.736Z,17.92
2017-01-23T04:28:10.632Z,17.85
2017-01-23T04:29:12.919Z,18.41
2017-01-23T04:30:13.057Z,18.16
2017-01-23T04:31:13.729Z,17.94
2017-01-23T04:32:10.953Z,17.90
2017-01-23T04:33:11.924Z,17.90
2017-01-23T04:34:12.035Z,17.89
2017-01-23T04:35:12.836Z,17.88
2017-01-23T04:36:12.809Z,17.88
2017-01-23T04:37:12.412Z,17.94
2017-01-23T04:38:13.214Z,17.87
2017-01-23T04:39:11.002Z,17.87
2017-01-23T04:40:12.506Z,17.93
2017-01-23T04:41:11.033Z,17.87
2017-01-23T04:42:13.185Z,17.87
2017-01-23T04:43:12.685Z,17.90
2017-01-23T04:44:12.328Z,17.87
2017-01-23T04:45:14.909Z,17.87
2017-01-23T04:46:12.060Z,17.87
2017-01-23T04:47:10.117Z,17.87
2017-01-23T04:48:14.445Z,17.88
2017-01-23T04:49:12.426Z,17.87
2017-01-23T04:50:11.661Z,17.87
2017-01-23T04:51:10.559Z,17.85
2017-01-23T04:52:12.531Z,18.40
2017-01-23T04:53:13.097Z,18.46
2017-01-23T04:54:12.222Z,18.49
2017-01-23T04:55:12.798Z,17.95
2017-01-23T04:56:12.818Z,18.06
2017-01-23T04:57:10.367Z,17.92
2017-01-23T04:58:11.942Z,17.90
2017-01-23T04:59:12.002Z,17.88
2017-01-23T05:00:12.553Z,17.88
2017-01-23T05:01:13.210Z,17.87
2017-01-23T05:02:13.003Z,17.86
2017-01-23T05:03:12.011Z,17.86
2017-01-23T05:04:13.745Z,17.86
2017-01-23T05:05:12.178Z,17.86
2017-01-23T05:06:12.778Z,17.92
2017-01-23T05:07:13.416Z,17.86
2017-01-23T05:08:12.526Z,17.85
2017-01-23T05:09:13.030Z,17.91
2017-01-23T05:10:11.962Z,17.86
2017-01-23T05:11:11.955Z,17.85
2017-01-23T05:12:12.137Z,17.85
2017-01-23T05:13:12.718Z,17.85
2017-01-23T05:14:11.900Z,17.85
2017-01-23T05:15:12.599Z,17.85
2017-01-23T05:16:12.714Z,17.85
2017-01-23T05:17:13.820Z,17.85
2017-01-23T05:18:11.934Z,17.86
2017-01-23T05:19:11.976Z,17.86
2017-01-23T05:20:12.802Z,17.86
2017-01-23T05:21:11.694Z,17.86
2017-01-23T05:22:12.676Z,17.86
2017-01-23T05:23:14.596Z,17.85
2017-01-23T05:24:12.172Z,17.85
2017-01-23T05:25:13.157Z,17.90
2017-01-23T05:26:13.409Z,17.85
2017-01-23T05:27:13.002Z,17.85
2017-01-23T05:28:13.241Z,17.85
2017-01-23T05:29:14.319Z,17.85
2017-01-23T05:30:11.967Z,17.85
2017-01-23T05:31:11.041Z,17.85
2017-01-23T05:32:12.202Z,17.84
2017-01-23T05:33:12.756Z,17.87
2017-01-23T05:34:12.864Z,18.38
2017-01-23T05:35:12.349Z,18.44
2017-01-23T05:36:11.244Z,18.46
2017-01-23T05:37:13.093Z,18.48
2017-01-23T05:38:12.843Z,18.49
2017-01-23T05:39:11.939Z,18.48
2017-01-23T05:40:12.785Z,18.48
2017-01-23T05:41:12.210Z,17.96
2017-01-23T05:42:12.235Z,17.90
2017-01-23T05:43:12.123Z,17.88
2017-01-23T05:44:12.684Z,17.86
2017-01-23T05:45:12.721Z,17.86
2017-01-23T05:46:11.621Z,17.85
2017-01-23T05:47:12.386Z,17.85
2017-01-23T05:48:14.168Z,17.85
2017-01-23T05:49:12.391Z,17.85
2017-01-23T05:50:12.384Z,17.85
2017-01-23T05:51:12.334Z,17.85
2017-01-23T05:52:12.451Z,17.85
2017-01-23T05:53:12.678Z,17.85
2017-01-23T05:54:11.994Z,17.90
2017-01-23T05:55:12.415Z,17.90
2017-01-23T05:56:13.110Z,17.83
2017-01-23T05:57:12.687Z,17.90
2017-01-23T05:58:12.600Z,17.84
2017-01-23T05:59:12.980Z,17.84
2017-01-23T06:00:12.019Z,17.83
2017-01-23T06:01:12.052Z,17.84
2017-01-23T06:02:12.254Z,17.83
2017-01-23T06:03:12.859Z,17.84
2017-01-23T06:04:12.483Z,17.90
2017-01-23T06:05:13.137Z,17.85
2017-01-23T06:06:13.356Z,17.84
2017-01-23T06:07:12.964Z,17.85
2017-01-23T06:08:12.891Z,17.85
2017-01-23T06:09:13.345Z,17.84
2017-01-23T06:10:12.356Z,17.85
2017-01-23T06:11:11.139Z,17.84
2017-01-23T06:12:12.847Z,18.37
2017-01-23T06:13:11.897Z,18.41
2017-01-23T06:14:12.946Z,18.46
2017-01-23T06:15:11.955Z,18.46
2017-01-23T06:16:12.717Z,18.47
2017-01-23T06:17:11.945Z,18.48
2017-01-23T06:18:10.736Z,18.48
2017-01-23T06:19:10.958Z,18.47
2017-01-23T06:20:13.340Z,18.48
2017-01-23T06:21:13.071Z,18.47
2017-01-23T06:22:13.199Z,18.11
2017-01-23T06:23:12.655Z,17.94
2017-01-23T06:24:12.608Z,17.89
2017-01-23T06:25:12.642Z,17.87
2017-01-23T06:26:10.650Z,17.85
2017-01-23T06:27:12.458Z,18.37
2017-01-23T06:28:13.099Z,18.05
2017-01-23T06:29:13.367Z,17.92
2017-01-23T06:30:16.157Z,17.87
2017-01-23T06:31:13.023Z,17.86
2017-01-23T06:32:13.003Z,17.85
2017-01-23T06:33:10.719Z,17.84
2017-01-23T06:34:13.588Z,18.36
2017-01-23T06:35:11.668Z,18.41
2017-01-23T06:36:12.378Z,18.46
2017-01-23T06:37:13.369Z,18.47
2017-01-23T06:38:12.288Z,18.17
2017-01-23T06:39:12.290Z,17.96
2017-01-23T06:40:12.347Z,17.91
2017-01-23T06:41:12.380Z,17.90
2017-01-23T06:42:14.150Z,17.88
2017-01-23T06:43:12.086Z,17.88
2017-01-23T06:44:12.730Z,17.94
2017-01-23T06:45:12.357Z,17.88
2017-01-23T06:46:12.451Z,17.88
2017-01-23T06:47:12.993Z,17.87
2017-01-23T06:48:12.416Z,17.94
2017-01-23T06:49:12.318Z,17.86
2017-01-23T06:50:12.989Z,17.86
2017-01-23T06:51:12.576Z,17.89
2017-01-23T06:52:10.750Z,17.85
2017-01-23T06:53:12.565Z,18.39
2017-01-23T06:54:09.418Z,17.90
2017-01-23T06:55:12.924Z,17.87
2017-01-23T06:56:12.073Z,17.87
2017-01-23T06:57:12.438Z,17.93
2017-01-23T06:58:09.920Z,17.85
2017-01-23T06:59:12.130Z,17.89
2017-01-23T07:00:12.045Z,17.86
2017-01-23T07:01:12.031Z,17.85
2017-01-23T07:02:12.602Z,17.88
2017-01-23T07:03:10.445Z,17.85
2017-01-23T07:04:12.560Z,17.84
2017-01-23T07:05:10.670Z,17.84
2017-01-23T07:06:12.443Z,17.84
2017-01-23T07:07:12.449Z,17.84
2017-01-23T07:08:15.025Z,17.85
2017-01-23T07:09:12.208Z,17.86
2017-01-23T07:10:14.012Z,17.87
2017-01-23T07:11:11.900Z,17.88
2017-01-23T07:12:12.398Z,17.89
2017-01-23T07:13:12.379Z,17.90
2017-01-23T07:14:13.090Z,17.90
2017-01-23T07:15:13.174Z,17.92
2017-01-23T07:16:12.319Z,17.93
2017-01-23T07:17:13.539Z,17.93
2017-01-23T07:18:11.590Z,17.93
2017-01-23T07:19:13.949Z,18.49
2017-01-23T07:20:12.609Z,18.55
2017-01-23T07:21:12.167Z,18.57
2017-01-23T07:22:13.024Z,18.59
2017-01-23T07:23:12.763Z,18.05
2017-01-23T07:24:11.807Z,18.01
2017-01-23T07:25:11.738Z,17.99
2017-01-23T07:26:11.810Z,17.98
2017-01-23T07:27:11.947Z,17.97
2017-01-23T07:28:12.172Z,17.97
2017-01-23T07:29:12.864Z,17.97
2017-01-23T07:30:12.603Z,17.97
2017-01-23T07:31:11.575Z,17.98
2017-01-23T07:32:12.355Z,18.00
2017-01-23T07:33:13.940Z,17.97
2017-01-23T07:34:13.553Z,18.02
2017-01-23T07:35:12.058Z,18.09
2017-01-23T07:36:11.899Z,18.04
2017-01-23T07:37:12.536Z,18.08
2017-01-23T07:38:12.617Z,18.15
2017-01-23T07:39:12.239Z,18.17
2017-01-23T07:40:12.310Z,18.13
2017-01-23T07:41:12.838Z,18.13
2017-01-23T07:42:12.438Z,18.12
2017-01-23T07:43:12.496Z,18.12
2017-01-23T07:44:10.969Z,18.10
2017-01-23T07:45:13.098Z,18.12
2017-01-23T07:46:12.121Z,18.12
2017-01-23T07:47:12.071Z,18.11
2017-01-23T07:48:13.531Z,18.11
2017-01-23T07:49:12.677Z,18.12
2017-01-23T07:50:12.407Z,18.13
2017-01-23T07:51:10.502Z,18.12
2017-01-23T07:52:11.621Z,18.11
2017-01-23T07:53:11.571Z,18.11
2017-01-23T07:54:13.150Z,18.12
2017-01-23T07:55:12.619Z,18.13
2017-01-23T07:56:12.439Z,18.14
2017-01-23T07:57:13.098Z,18.14
2017-01-23T07:58:12.018Z,18.16
2017-01-23T07:59:12.055Z,18.17
2017-01-23T08:00:13.217Z,18.16
2017-01-23T08:01:12.867Z,18.17
2017-01-23T08:02:10.580Z,18.16
2017-01-23T08:03:10.619Z,18.16
2017-01-23T08:04:13.122Z,18.71
2017-01-23T08:05:12.149Z,18.77
2017-01-23T08:06:12.099Z,18.73
2017-01-23T08:07:12.880Z,18.41
2017-01-23T08:08:13.346Z,18.18
2017-01-23T08:09:13.430Z,18.15
2017-01-23T08:10:12.551Z,18.15
2017-01-23T08:11:12.678Z,18.15
2017-01-23T08:12:12.331Z,18.16
2017-01-23T08:13:14.940Z,18.17
2017-01-23T08:14:11.890Z,18.19
2017-01-23T08:15:12.659Z,18.22
2017-01-23T08:16:11.611Z,18.24
2017-01-23T08:17:11.858Z,18.24
2017-01-23T08:18:10.766Z,18.22
2017-01-23T08:19:12.742Z,18.24
2017-01-23T08:20:12.365Z,18.21
2017-01-23T08:21:12.864Z,18.23
2017-01-23T08:22:11.894Z,18.18
2017-01-23T08:23:12.012Z,18.15
2017-01-23T08:24:11.947Z,18.14
2017-01-23T08:25:12.458Z,18.18
2017-01-23T08:26:12.771Z,18.18
2017-01-23T08:27:11.788Z,18.13
2017-01-23T08:28:11.759Z,18.12
2017-01-23T08:29:13.472Z,18.12
2017-01-23T08:30:12.975Z,17.68
2017-01-23T08:31:12.620Z,14.15
2017-01-23T08:32:11.438Z,11.75
2017-01-23T08:33:13.136Z,9.89
2017-01-23T08:34:12.391Z,8.39
2017-01-23T08:35:12.345Z,7.69
2017-01-23T08:36:12.335Z,7.09
2017-01-23T08:37:12.847Z,6.87
2017-01-23T08:38:09.135Z,7.24
2017-01-23T08:39:12.709Z,7.66
2017-01-23T08:40:11.807Z,8.00
2017-01-23T08:41:12.916Z,8.17
2017-01-23T08:42:15.001Z,9.56
2017-01-23T08:43:12.643Z,11.06
2017-01-23T08:44:11.797Z,12.17
2017-01-23T08:45:11.688Z,12.91
2017-01-23T08:46:11.701Z,13.54
2017-01-23T08:47:11.730Z,14.10
2017-01-23T08:48:12.489Z,14.55
2017-01-23T08:49:13.358Z,14.89
2017-01-23T08:50:11.343Z,15.17
2017-01-23T08:51:13.507Z,15.96
2017-01-23T08:52:12.501Z,16.16
2017-01-23T08:53:11.239Z,16.34
2017-01-23T08:54:16.030Z,15.94
2017-01-23T08:55:12.257Z,16.02
2017-01-23T08:56:12.895Z,16.10
2017-01-23T08:57:11.868Z,16.16
2017-01-23T08:58:13.404Z,16.23
2017-01-23T08:59:13.059Z,16.30
2017-01-23T09:00:12.573Z,16.37
2017-01-23T09:01:12.677Z,16.40
2017-01-23T09:02:11.710Z,16.44
2017-01-23T09:03:11.711Z,16.48
2017-01-23T09:04:11.855Z,16.52
2017-01-23T09:05:11.986Z,16.56
2017-01-23T09:06:12.653Z,16.60
2017-01-23T09:07:12.138Z,16.63
2017-01-23T09:08:12.143Z,16.67
2017-01-23T09:09:10.931Z,16.68
2017-01-23T09:10:12.346Z,16.77
2017-01-23T09:11:11.094Z,16.73
2017-01-23T09:12:12.730Z,16.82
2017-01-23T09:13:11.831Z,16.78
2017-01-23T09:14:11.887Z,16.80
2017-01-23T09:15:13.578Z,16.82
2017-01-23T09:16:11.511Z,16.84
2017-01-23T09:17:12.759Z,16.85
2017-01-23T09:18:11.702Z,16.88
2017-01-23T09:19:12.428Z,16.88
2017-01-23T09:20:12.966Z,16.89
2017-01-23T09:21:11.919Z,16.92
2017-01-23T09:22:12.007Z,16.92
2017-01-23T09:23:12.026Z,16.86
2017-01-23T09:24:12.017Z,16.78
2017-01-23T09:25:13.666Z,16.79
2017-01-23T09:26:11.638Z,16.81
2017-01-23T09:27:13.158Z,16.84
2017-01-23T09:28:12.856Z,16.89
2017-01-23T09:29:12.323Z,17.10
2017-01-23T09:30:12.887Z,17.19
2017-01-23T09:31:11.894Z,17.36
2017-01-23T09:32:12.628Z,17.36
2017-01-23T09:33:11.804Z,17.31
2017-01-23T09:34:11.752Z,17.25
2017-01-23T09:35:11.880Z,17.26
2017-01-23T09:36:12.364Z,17.25
2017-01-23T09:37:12.974Z,17.30
2017-01-23T09:38:13.628Z,17.85
2017-01-23T09:39:11.510Z,17.93
2017-01-23T09:40:13.080Z,17.64
2017-01-23T09:41:12.151Z,17.47
2017-01-23T09:42:12.639Z,17.37
2017-01-23T09:43:11.775Z,17.33
2017-01-23T09:44:12.257Z,17.36
2017-01-23T09:45:12.421Z,17.29
2017-01-23T09:46:12.326Z,17.29
2017-01-23T09:47:12.755Z,17.34
2017-01-23T09:48:13.715Z,17.27
2017-01-23T09:49:10.666Z,17.26
2017-01-23T09:50:11.882Z,17.27
2017-01-23T09:51:10.437Z,17.26
2017-01-23T09:52:10.549Z,17.27
2017-01-23T09:53:11.763Z,17.27
2017-01-23T09:54:12.399Z,17.30
2017-01-23T09:55:12.463Z,17.80
2017-01-23T09:56:11.043Z,17.87
2017-01-23T09:57:12.298Z,17.89
2017-01-23T09:58:14.422Z,17.91
2017-01-23T09:59:12.374Z,17.92
2017-01-23T10:00:14.246Z,17.95
2017-01-23T10:01:14.262Z,17.60
2017-01-23T10:02:13.091Z,17.41
2017-01-23T10:03:13.966Z,17.36
2017-01-23T10:04:12.054Z,17.33
2017-01-23T10:05:13.856Z,17.31
2017-01-23T10:06:11.929Z,17.30
2017-01-23T10:07:11.898Z,17.30
2017-01-23T10:08:11.919Z,17.29
2017-01-23T10:09:09.216Z,17.27
2017-01-23T10:10:12.956Z,17.28
2017-01-23T10:11:12.578Z,17.27
2017-01-23T10:12:13.253Z,17.26
2017-01-23T10:13:12.280Z,17.27
2017-01-23T10:14:12.782Z,17.29
2017-01-23T10:15:10.578Z,17.77
2017-01-23T10:16:12.457Z,17.84
2017-01-23T10:17:11.197Z,17.85
2017-01-23T10:18:12.904Z,17.86
2017-01-23T10:19:11.941Z,17.87
2017-01-23T10:20:12.598Z,17.87
2017-01-23T10:21:14.357Z,17.34
2017-01-23T10:22:13.313Z,17.30
2017-01-23T10:23:12.244Z,17.27
2017-01-23T10:24:10.999Z,17.24
2017-01-23T10:25:12.770Z,17.24
2017-01-23T10:26:12.489Z,17.23
2017-01-23T10:27:12.578Z,17.23
2017-01-23T10:28:13.362Z,17.24
2017-01-23T10:29:12.343Z,17.22
2017-01-23T10:30:12.476Z,17.22
2017-01-23T10:31:12.963Z,17.28
2017-01-23T10:32:12.697Z,17.24
2017-01-23T10:33:12.300Z,17.22
2017-01-23T10:34:12.133Z,17.22
2017-01-23T10:35:12.739Z,17.22
2017-01-23T10:36:11.780Z,17.22
2017-01-23T10:37:11.782Z,17.22
2017-01-23T10:38:12.384Z,17.25
2017-01-23T10:39:13.086Z,17.21
2017-01-23T10:40:12.006Z,17.21
2017-01-23T10:41:12.461Z,17.22
2017-01-23T10:42:12.572Z,17.21
2017-01-23T10:43:12.346Z,17.22
2017-01-23T10:44:11.068Z,17.22
2017-01-23T10:45:12.340Z,17.75
2017-01-23T10:46:12.704Z,17.79
2017-01-23T10:47:12.076Z,17.83
2017-01-23T10:48:13.065Z,17.83
2017-01-23T10:49:10.060Z,17.86
2017-01-23T10:50:16.138Z,17.85
2017-01-23T10:51:12.049Z,17.35
2017-01-23T10:52:13.007Z,17.31
2017-01-23T10:53:12.062Z,17.27
2017-01-23T10:54:12.011Z,17.26
2017-01-23T10:55:13.767Z,17.25
2017-01-23T10:56:11.755Z,17.25
2017-01-23T10:57:11.645Z,17.25
2017-01-23T10:58:12.201Z,17.25
2017-01-23T10:59:12.901Z,17.26
2017-01-23T11:00:11.949Z,17.25
2017-01-23T11:01:12.590Z,17.26
2017-01-23T11:02:14.238Z,17.26
2017-01-23T11:03:13.228Z,17.25
2017-01-23T11:04:12.340Z,17.26
2017-01-23T11:05:13.881Z,17.26
2017-01-23T11:06:12.404Z,17.31
2017-01-23T11:07:13.520Z,17.35
2017-01-23T11:08:13.886Z,17.80
2017-01-23T11:09:12.089Z,17.86
2017-01-23T11:10:12.259Z,17.89
2017-01-23T11:11:12.874Z,17.42
2017-01-23T11:12:11.936Z,17.33
2017-01-23T11:13:12.888Z,17.32
2017-01-23T11:14:13.372Z,17.27
2017-01-23T11:15:12.445Z,17.27
2017-01-23T11:16:13.190Z,17.24
2017-01-23T11:17:12.894Z,17.25
2017-01-23T11:18:11.800Z,17.25
2017-01-23T11:19:12.330Z,17.31
2017-01-23T11:20:12.451Z,17.25
2017-01-23T11:21:14.117Z,17.25
2017-01-23T11:22:10.966Z,17.25
2017-01-23T11:23:13.953Z,17.26
2017-01-23T11:24:12.096Z,17.26
2017-01-23T11:25:13.067Z,17.25
2017-01-23T11:26:13.097Z,17.25
2017-01-23T11:27:13.253Z,17.25
2017-01-23T11:28:12.643Z,17.28
2017-01-23T11:29:11.579Z,17.45
2017-01-23T11:30:12.279Z,17.29
2017-01-23T11:31:13.019Z,17.27
2017-01-23T11:32:12.169Z,17.26
2017-01-23T11:33:12.765Z,17.24
2017-01-23T11:34:12.703Z,17.26
2017-01-23T11:35:10.842Z,17.24
2017-01-23T11:36:12.336Z,17.29
2017-01-23T11:37:13.393Z,17.28
2017-01-23T11:38:12.719Z,17.35
2017-01-23T11:39:12.144Z,17.30
2017-01-23T11:40:12.044Z,17.27
2017-01-23T11:41:12.847Z,17.27
2017-01-23T11:42:11.894Z,17.26
2017-01-23T11:43:11.875Z,17.27
2017-01-23T11:44:12.714Z,17.28
2017-01-23T11:45:13.320Z,17.29
2017-01-23T11:46:13.273Z,17.31
2017-01-23T11:47:12.944Z,17.34
2017-01-23T11:48:12.006Z,17.33
2017-01-23T11:49:10.318Z,17.33
2017-01-23T11:50:12.214Z,17.34
2017-01-23T11:51:12.738Z,17.38
2017-01-23T11:52:12.462Z,17.89
2017-01-23T11:53:12.585Z,17.94
2017-01-23T11:54:11.540Z,17.98
2017-01-23T11:55:12.564Z,17.99
2017-01-23T11:56:13.607Z,18.01
2017-01-23T11:57:11.746Z,18.03
2017-01-23T11:58:12.381Z,18.03
2017-01-23T11:59:12.923Z,18.03
2017-01-23T12:00:10.608Z,18.03
2017-01-23T12:01:11.588Z,18.03
2017-01-23T12:02:11.684Z,18.04
2017-01-23T12:03:13.522Z,18.04
2017-01-23T12:04:13.271Z,17.67
2017-01-23T12:05:12.297Z,17.51
2017-01-23T12:06:11.142Z,17.45
2017-01-23T12:07:12.816Z,17.43
2017-01-23T12:08:11.875Z,17.41
2017-01-23T12:09:11.810Z,17.41
2017-01-23T12:10:12.081Z,17.40
2017-01-23T12:11:11.929Z,17.39
2017-01-23T12:12:10.594Z,17.39
2017-01-23T12:13:12.285Z,17.42
2017-01-23T12:14:12.315Z,17.38
2017-01-23T12:15:12.424Z,17.35
2017-01-23T12:16:13.000Z,17.34
2017-01-23T12:17:12.207Z,17.86
2017-01-23T12:18:12.252Z,17.90
2017-01-23T12:19:13.771Z,17.91
2017-01-23T12:20:12.849Z,17.92
2017-01-23T12:21:11.762Z,17.92
2017-01-23T12:22:13.416Z,17.92
2017-01-23T12:23:12.870Z,17.91
2017-01-23T12:24:14.054Z,17.91
2017-01-23T12:25:12.160Z,17.39
2017-01-23T12:26:13.031Z,17.34
2017-01-23T12:27:11.063Z,17.30
2017-01-23T12:28:12.116Z,17.29
2017-01-23T12:29:10.945Z,17.28
2017-01-23T12:30:10.071Z,17.28
2017-01-23T12:31:13.111Z,17.27
2017-01-23T12:32:12.899Z,17.27
2017-01-23T12:33:11.908Z,17.26
2017-01-23T12:34:10.854Z,17.25
2017-01-23T12:35:11.743Z,17.78
2017-01-23T12:36:13.553Z,17.32
2017-01-23T12:37:11.684Z,17.30
2017-01-23T12:38:12.254Z,17.35
2017-01-23T12:39:10.384Z,17.26
2017-01-23T12:40:12.975Z,17.25
2017-01-23T12:41:11.962Z,17.26
2017-01-23T12:42:12.220Z,17.24
2017-01-23T12:43:12.541Z,17.31
2017-01-23T12:44:12.328Z,17.24
2017-01-23T12:45:12.646Z,17.30
2017-01-23T12:46:12.122Z,17.24
2017-01-23T12:47:12.834Z,17.23
2017-01-23T12:48:11.927Z,17.24
2017-01-23T12:49:11.848Z,17.25
2017-01-23T12:50:11.897Z,17.24
2017-01-23T12:51:11.921Z,17.24
2017-01-23T12:52:12.400Z,17.24
2017-01-23T12:53:10.531Z,17.24